Time;durP1;ratioP1;P1;durP2;ratioP2;P2;SDS_P1;SDS_P2;PMS_P1;PMS_P2;Temp;Humidity;BMP_temperature;BMP_pressure;BME280_temperature;BME280_humidity;BME280_pressure;Samples;Min_cycle;Max_cycle;Signal;HPM_P1;HPM_P2
2024/02/10 00:01:17;;;;;;;0.10;0.10;;;;;;;;;;4979823;28;20482;-84
2024/02/10 00:03:44;;;;;;;0.10;0.10;;;;;;;;;;4979715;28;20100;-84
2024/02/10 00:06:15;;;;;;;0.10;0.10;;;;;;;;;;4980020;28;20133;-83
2024/02/10 00:08:42;;;;;;;0.10;0.10;;;;;;;;;;4996184;28;20050;-85
2024/02/10 00:11:10;;;;;;;0.10;0.10;;;;;;;;;;4995860;28;20052;-84
2024/02/10 00:13:39;;;;;;;0.32;0.32;;;;;;;;;;4979564;28;20086;-83
2024/02/10 00:16:05;;;;;;;0.10;0.10;;;;;;;;;;4979976;28;20045;-83
2024/02/10 00:18:31;;;;;;;0.15;0.15;;;;;;;;;;4996262;28;20393;-83
2024/02/10 00:20:58;;;;;;;0.20;0.20;;;;;;;;;;4995807;28;20040;-82
2024/02/10 00:23:24;;;;;;;0.10;0.10;;;;;;;;;;4995928;28;20049;-83
2024/02/10 00:25:53;;;;;;;0.22;0.22;;;;;;;;;;4995666;28;20037;-82
2024/02/10 00:28:24;;;;;;;0.10;0.10;;;;;;;;;;4995657;28;20046;-83
2024/02/10 00:30:51;;;;;;;0.20;0.20;;;;;;;;;;4979573;28;20052;-83
2024/02/10 00:33:17;;;;;;;0.13;0.13;;;;;;;;;;4995590;28;20544;-83
2024/02/10 00:35:44;;;;;;;0.85;0.85;;;;;;;;;;4995859;28;20096;-83
2024/02/10 00:38:15;;;;;;;0.30;0.20;;;;;;;;;;4995957;28;20065;-82
2024/02/10 00:40:41;;;;;;;0.10;0.10;;;;;;;;;;4979450;28;20050;-83
2024/02/10 00:43:07;;;;;;;0.10;0.10;;;;;;;;;;4978884;28;20453;-82
2024/02/10 00:45:35;;;;;;;0.10;0.10;;;;;;;;;;5011837;28;20080;-83
2024/02/10 00:48:02;;;;;;;0.10;0.10;;;;;;;;;;4979387;28;20137;-83
2024/02/10 00:50:29;;;;;;;0.20;0.20;;;;;;;;;;4995421;28;20038;-83
2024/02/10 00:52:56;;;;;;;0.10;0.10;;;;;;;;;;4979129;28;20042;-83
2024/02/10 00:55:25;;;;;;;0.20;0.20;;;;;;;;;;5013086;28;20115;-83
2024/02/10 00:57:52;;;;;;;0.10;0.10;;;;;;;;;;4979137;28;20088;-82
2024/02/10 01:00:21;;;;;;;0.65;0.65;;;;;;;;;;4995128;28;20042;-83
2024/02/10 01:02:49;;;;;;;0.20;0.20;;;;;;;;;;4995146;28;20058;-83
2024/02/10 01:05:15;;;;;;;0.10;0.10;;;;;;;;;;4979323;28;20042;-84
2024/02/10 01:07:43;;;;;;;0.15;0.15;;;;;;;;;;4995174;28;20096;-83
2024/02/10 01:10:11;;;;;;;0.10;0.10;;;;;;;;;;4978961;28;20045;-83
2024/02/10 01:12:37;;;;;;;0.10;0.10;;;;;;;;;;4978924;28;20077;-84
2024/02/10 01:15:04;;;;;;;0.10;0.10;;;;;;;;;;4979104;28;20038;-84
2024/02/10 01:17:30;;;;;;;0.30;0.30;;;;;;;;;;4978964;28;20041;-84
2024/02/10 01:19:56;;;;;;;0.20;0.20;;;;;;;;;;4978675;28;20048;-83
2024/02/10 01:22:25;;;;;;;0.10;0.10;;;;;;;;;;5011504;28;20077;-84
2024/02/10 01:24:55;;;;;;;0.10;0.10;;;;;;;;;;4978961;28;20038;-84
2024/02/10 01:27:26;;;;;;;0.10;0.10;;;;;;;;;;4994954;28;20509;-83
2024/02/10 01:29:55;;;;;;;0.10;0.10;;;;;;;;;;4978663;28;20042;-83
2024/02/10 01:32:23;;;;;;;0.32;0.20;;;;;;;;;;4978689;28;20038;-84
2024/02/10 01:34:49;;;;;;;0.10;0.10;;;;;;;;;;4994999;28;20037;-82
2024/02/10 01:37:18;;;;;;;0.10;0.10;;;;;;;;;;4978643;28;20046;-83
2024/02/10 01:39:45;;;;;;;0.10;0.10;;;;;;;;;;4994953;28;20073;-82
2024/02/10 01:42:11;;;;;;;0.30;0.30;;;;;;;;;;4994707;28;20125;-83
2024/02/10 01:44:37;;;;;;;0.20;0.20;;;;;;;;;;4978366;28;20045;-83
2024/02/10 01:47:03;;;;;;;0.10;0.10;;;;;;;;;;4994845;28;20050;-89
2024/02/10 01:49:29;;;;;;;0.10;0.10;;;;;;;;;;4978454;28;20099;-85
2024/02/10 01:51:55;;;;;;;0.10;0.10;;;;;;;;;;4994738;28;20042;-83
2024/02/10 01:54:21;;;;;;;0.10;0.10;;;;;;;;;;4980563;28;20046;-83
2024/02/10 01:56:48;;;;;;;0.10;0.10;;;;;;;;;;4982501;28;20042;-83
2024/02/10 01:59:14;;;;;;;0.10;0.10;;;;;;;;;;4982291;28;20037;-83
2024/02/10 02:01:48;;;;;;;0.20;0.20;;;;;;;;;;4982356;28;20121;-83
2024/02/10 02:04:15;;;;;;;0.28;0.28;;;;;;;;;;4994917;28;20129;-83
2024/02/10 02:06:43;;;;;;;0.40;0.40;;;;;;;;;;4963361;28;20101;-84
2024/02/10 02:09:10;;;;;;;0.10;0.10;;;;;;;;;;4978823;28;20414;-84
2024/02/10 02:11:50;;;;;;;0.10;0.10;;;;;;;;;;4995193;28;20065;-83
2024/02/10 02:14:18;;;;;;;0.10;0.10;;;;;;;;;;4963532;28;20049;-84
2024/02/10 02:16:48;;;;;;;0.10;0.10;;;;;;;;;;4962821;28;20038;-83
2024/02/10 02:19:14;;;;;;;0.20;0.20;;;;;;;;;;4995230;28;20068;-83
2024/02/10 02:21:42;;;;;;;0.10;0.10;;;;;;;;;;4962469;28;20194;-83
2024/02/10 02:24:09;;;;;;;0.10;0.10;;;;;;;;;;4962485;28;20097;-82
2024/02/10 02:26:36;;;;;;;0.10;0.10;;;;;;;;;;4962396;28;20042;-84
2024/02/10 02:29:07;;;;;;;0.10;0.10;;;;;;;;;;4962322;28;20053;-83
2024/02/10 02:31:35;;;;;;;0.20;0.20;;;;;;;;;;4963603;28;20096;-83
2024/02/10 02:34:03;;;;;;;0.10;0.10;;;;;;;;;;4962313;28;20051;-83
2024/02/10 02:36:30;;;;;;;0.20;0.20;;;;;;;;;;4978863;28;20528;-83
2024/02/10 02:38:58;;;;;;;0.10;0.10;;;;;;;;;;4962226;28;20114;-83
2024/02/10 02:41:26;;;;;;;0.10;0.10;;;;;;;;;;4994520;28;20483;-82
2024/02/10 02:43:52;;;;;;;0.10;0.10;;;;;;;;;;5010736;28;20050;-83
2024/02/10 02:46:18;;;;;;;0.10;0.10;;;;;;;;;;4962406;28;20062;-83
2024/02/10 02:48:44;;;;;;;0.10;0.10;;;;;;;;;;4994297;28;20050;-84
2024/02/10 02:51:10;;;;;;;0.10;0.10;;;;;;;;;;4994098;28;20042;-82
2024/02/10 02:53:37;;;;;;;0.30;0.30;;;;;;;;;;5010410;28;20070;-82
2024/02/10 02:56:04;;;;;;;0.10;0.10;;;;;;;;;;4962070;28;20073;-82
2024/02/10 02:58:31;;;;;;;0.10;0.10;;;;;;;;;;4978180;28;20108;-82
2024/02/10 03:00:58;;;;;;;0.10;0.10;;;;;;;;;;4978300;28;20045;-82
2024/02/10 03:03:25;;;;;;;0.10;0.10;;;;;;;;;;4983645;28;20061;-83
2024/02/10 03:05:51;;;;;;;0.15;0.15;;;;;;;;;;4961149;28;20039;-82
2024/02/10 03:08:17;;;;;;;0.10;0.10;;;;;;;;;;4961904;28;20101;-82
2024/02/10 03:10:43;;;;;;;0.10;0.10;;;;;;;;;;4961886;28;20064;-83
2024/02/10 03:13:09;;;;;;;0.10;0.10;;;;;;;;;;4977957;28;20053;-83
2024/02/10 03:15:37;;;;;;;0.20;0.20;;;;;;;;;;4977828;28;20042;-83
2024/02/10 03:18:04;;;;;;;0.10;0.10;;;;;;;;;;4961939;28;20069;-82
2024/02/10 03:20:30;;;;;;;0.20;0.20;;;;;;;;;;4993613;28;20046;-83
2024/02/10 03:23:02;;;;;;;0.20;0.20;;;;;;;;;;4993951;28;20146;-84
2024/02/10 03:25:28;;;;;;;0.10;0.10;;;;;;;;;;4962202;28;20128;-83
2024/02/10 03:27:55;;;;;;;0.10;0.10;;;;;;;;;;4961601;28;20180;-83
2024/02/10 03:30:23;;;;;;;0.17;0.17;;;;;;;;;;4993595;28;20079;-83
2024/02/10 03:32:53;;;;;;;0.10;0.10;;;;;;;;;;4961649;28;20046;-84
2024/02/10 03:35:20;;;;;;;0.10;0.10;;;;;;;;;;4993629;28;20069;-83
2024/02/10 03:37:46;;;;;;;0.20;0.20;;;;;;;;;;4961363;28;20046;-83
2024/02/10 03:40:20;;;;;;;0.10;0.10;;;;;;;;;;4961092;28;20557;-82
2024/02/10 03:42:46;;;;;;;0.52;0.30;;;;;;;;;;4993735;28;20046;-83
2024/02/10 03:45:17;;;;;;;0.10;0.10;;;;;;;;;;4961456;28;20050;-83
2024/02/10 03:47:43;;;;;;;0.98;0.30;;;;;;;;;;4993612;28;20361;-83
2024/02/10 03:50:11;;;;;;;0.20;0.20;;;;;;;;;;4960828;28;20557;-83
2024/02/10 03:52:37;;;;;;;0.10;0.10;;;;;;;;;;4961267;28;20045;-83
2024/02/10 03:55:08;;;;;;;0.15;0.15;;;;;;;;;;4960994;28;20052;-83
2024/02/10 03:57:35;;;;;;;0.13;0.13;;;;;;;;;;4977719;28;20070;-83
2024/02/10 04:00:01;;;;;;;0.20;0.20;;;;;;;;;;4976800;28;20085;-83
2024/02/10 04:02:27;;;;;;;0.10;0.10;;;;;;;;;;4994643;28;20437;-83
2024/02/10 04:04:53;;;;;;;0.10;0.10;;;;;;;;;;4980196;28;20080;-83
2024/02/10 04:07:20;;;;;;;0.10;0.10;;;;;;;;;;4979923;28;20096;-82
2024/02/10 04:09:46;;;;;;;0.10;0.10;;;;;;;;;;4996181;28;20038;-83
2024/02/10 04:12:14;;;;;;;0.10;0.10;;;;;;;;;;4979886;28;20501;-81
2024/02/10 04:14:40;;;;;;;0.20;0.20;;;;;;;;;;4979518;28;20045;-83
2024/02/10 04:17:06;;;;;;;0.40;0.40;;;;;;;;;;4995597;28;20130;-83
2024/02/10 04:19:32;;;;;;;0.10;0.10;;;;;;;;;;4996147;28;20049;-83
2024/02/10 04:21:59;;;;;;;0.25;0.20;;;;;;;;;;4995716;28;20069;-83
2024/02/10 04:24:25;;;;;;;0.28;0.28;;;;;;;;;;4996064;28;20453;-82
2024/02/10 04:26:51;;;;;;;0.10;0.10;;;;;;;;;;4995662;28;20048;-82
2024/02/10 04:29:19;;;;;;;0.10;0.10;;;;;;;;;;4979390;28;20121;-82
2024/02/10 04:31:45;;;;;;;0.10;0.10;;;;;;;;;;4979148;28;20130;-82
2024/02/10 04:34:11;;;;;;;0.10;0.10;;;;;;;;;;4995327;28;20053;-82
2024/02/10 04:36:38;;;;;;;0.20;0.20;;;;;;;;;;4995599;28;20046;-83
2024/02/10 04:39:05;;;;;;;0.10;0.10;;;;;;;;;;4995640;28;20418;-82
2024/02/10 04:41:31;;;;;;;0.20;0.20;;;;;;;;;;4995332;28;20109;-82
2024/02/10 04:43:58;;;;;;;0.20;0.20;;;;;;;;;;4995548;28;20041;-82
2024/02/10 04:46:24;;;;;;;0.10;0.10;;;;;;;;;;4979109;28;20129;-83
2024/02/10 04:48:53;;;;;;;0.20;0.20;;;;;;;;;;4979585;28;20361;-83
2024/02/10 04:51:24;;;;;;;0.10;0.10;;;;;;;;;;4978953;28;20064;-83
2024/02/10 04:53:50;;;;;;;0.10;0.10;;;;;;;;;;4995198;28;20125;-82
2024/02/10 04:56:19;;;;;;;0.10;0.10;;;;;;;;;;4995374;28;20133;-82
2024/02/10 04:58:49;;;;;;;0.20;0.20;;;;;;;;;;4979167;28;20038;-83
2024/02/10 05:01:19;;;;;;;0.10;0.10;;;;;;;;;;4995218;28;20148;-83
2024/02/10 05:03:46;;;;;;;0.10;0.10;;;;;;;;;;4995329;28;20077;-83
2024/02/10 05:06:12;;;;;;;0.10;0.10;;;;;;;;;;4995091;28;20048;-83
2024/02/10 05:08:38;;;;;;;0.10;0.10;;;;;;;;;;4995122;28;20512;-83
2024/02/10 05:11:06;;;;;;;0.10;0.10;;;;;;;;;;4978658;28;20173;-83
2024/02/10 05:13:32;;;;;;;0.20;0.20;;;;;;;;;;4994829;28;20129;-83
2024/02/10 05:15:58;;;;;;;0.10;0.10;;;;;;;;;;4979206;28;20044;-83
2024/02/10 05:18:24;;;;;;;0.10;0.10;;;;;;;;;;4995310;28;20322;-84
2024/02/10 05:20:52;;;;;;;0.10;0.10;;;;;;;;;;4994860;28;20117;-84
2024/02/10 05:23:19;;;;;;;0.10;0.10;;;;;;;;;;4995103;28;20438;-84
2024/02/10 05:25:45;;;;;;;0.10;0.10;;;;;;;;;;4978664;28;20068;-82
2024/02/10 05:28:11;;;;;;;0.10;0.10;;;;;;;;;;4978314;28;20077;-82
2024/02/10 05:30:37;;;;;;;0.20;0.20;;;;;;;;;;4994978;28;20042;-83
2024/02/10 05:33:05;;;;;;;0.10;0.10;;;;;;;;;;4994749;28;20046;-83
2024/02/10 05:35:31;;;;;;;0.10;0.10;;;;;;;;;;4995061;28;20380;-84
2024/02/10 05:37:59;;;;;;;0.10;0.10;;;;;;;;;;4994985;28;20050;-83
2024/02/10 05:40:27;;;;;;;0.10;0.10;;;;;;;;;;4978748;28;20125;-84
2024/02/10 05:42:58;;;;;;;0.32;0.32;;;;;;;;;;4994920;28;20053;-84
2024/02/10 05:45:25;;;;;;;0.10;0.10;;;;;;;;;;4978713;28;20038;-83
2024/02/10 05:47:51;;;;;;;0.10;0.10;;;;;;;;;;4978399;28;20045;-83
2024/02/10 05:50:22;;;;;;;0.10;0.10;;;;;;;;;;4994859;28;20042;-83
2024/02/10 05:52:53;;;;;;;0.10;0.10;;;;;;;;;;4994591;28;20050;-83
2024/02/10 05:55:20;;;;;;;0.10;0.10;;;;;;;;;;4994530;28;20042;-82
2024/02/10 05:57:49;;;;;;;0.20;0.20;;;;;;;;;;4978648;28;20386;-84
2024/02/10 06:00:15;;;;;;;0.20;0.20;;;;;;;;;;4994476;28;20119;-84
2024/02/10 06:02:42;;;;;;;0.10;0.10;;;;;;;;;;4978096;28;20056;-83
2024/02/10 06:05:12;;;;;;;0.10;0.10;;;;;;;;;;4994602;28;20054;-84
2024/02/10 06:07:39;;;;;;;0.10;0.10;;;;;;;;;;4978158;28;20490;-83
2024/02/10 06:10:14;;;;;;;0.20;0.20;;;;;;;;;;4994367;28;20049;-82
2024/02/10 06:12:41;;;;;;;0.35;0.30;;;;;;;;;;4978158;28;20125;-83
2024/02/10 06:15:09;;;;;;;0.30;0.30;;;;;;;;;;4994625;28;20046;-83
2024/02/10 06:17:39;;;;;;;0.10;0.10;;;;;;;;;;4994273;28;20482;-83
2024/02/10 06:20:07;;;;;;;0.20;0.20;;;;;;;;;;4994185;28;20042;-83
2024/02/10 06:22:34;;;;;;;0.20;0.20;;;;;;;;;;4994414;28;20049;-83
2024/02/10 06:25:00;;;;;;;0.22;0.20;;;;;;;;;;4994222;28;20046;-83
2024/02/10 06:27:26;;;;;;;0.20;0.20;;;;;;;;;;4994192;28;20046;-83
2024/02/10 06:29:54;;;;;;;0.10;0.10;;;;;;;;;;4994167;28;20046;-83
2024/02/10 06:32:21;;;;;;;0.30;0.30;;;;;;;;;;4978217;28;20050;-83
2024/02/10 06:34:51;;;;;;;0.10;0.10;;;;;;;;;;4994752;28;20038;-83
2024/02/10 06:37:25;;;;;;;0.30;0.30;;;;;;;;;;4994185;28;20045;-83
2024/02/10 06:39:51;;;;;;;0.32;0.32;;;;;;;;;;4978080;28;20049;-83
2024/02/10 06:42:18;;;;;;;0.20;0.20;;;;;;;;;;4997673;28;20454;-83
2024/02/10 06:44:44;;;;;;;0.10;0.10;;;;;;;;;;4997434;28;20046;-83
2024/02/10 06:47:10;;;;;;;0.20;0.20;;;;;;;;;;4981523;28;20405;-83
2024/02/10 06:49:37;;;;;;;0.20;0.20;;;;;;;;;;4997778;28;20041;-83
2024/02/10 06:52:03;;;;;;;0.20;0.20;;;;;;;;;;4981330;28;20046;-83
2024/02/10 06:54:29;;;;;;;0.10;0.10;;;;;;;;;;4981200;28;20053;-83
2024/02/10 06:56:57;;;;;;;0.10;0.10;;;;;;;;;;4981334;28;20042;-82
2024/02/10 06:59:26;;;;;;;0.10;0.10;;;;;;;;;;4981195;28;20516;-83
2024/02/10 07:01:54;;;;;;;0.10;0.10;;;;;;;;;;4981150;28;20092;-83
2024/02/10 07:04:23;;;;;;;0.10;0.10;;;;;;;;;;4996966;28;20093;-83
2024/02/10 07:06:53;;;;;;;0.10;0.10;;;;;;;;;;4997071;28;20049;-83
2024/02/10 07:09:21;;;;;;;0.30;0.30;;;;;;;;;;4997092;28;20050;-83
2024/02/10 07:11:48;;;;;;;0.17;0.17;;;;;;;;;;4980771;28;20073;-83
2024/02/10 07:14:14;;;;;;;0.10;0.10;;;;;;;;;;4980871;28;20069;-84
2024/02/10 07:16:40;;;;;;;0.10;0.10;;;;;;;;;;4997244;28;20441;-82
2024/02/10 07:19:07;;;;;;;0.10;0.10;;;;;;;;;;4997310;28;20121;-82
2024/02/10 07:21:34;;;;;;;0.10;0.10;;;;;;;;;;4996969;28;20042;-81
2024/02/10 07:24:05;;;;;;;0.10;0.10;;;;;;;;;;4996877;28;20041;-83
2024/02/10 07:26:32;;;;;;;0.20;0.20;;;;;;;;;;4996840;28;20038;-83
2024/02/10 07:28:59;;;;;;;0.30;0.30;;;;;;;;;;4996796;28;20045;-82
2024/02/10 07:31:28;;;;;;;0.10;0.10;;;;;;;;;;4980467;28;20087;-82
2024/02/10 07:33:58;;;;;;;0.43;0.43;;;;;;;;;;4996548;28;20042;-83
2024/02/10 07:36:34;;;;;;;0.20;0.20;;;;;;;;;;4996655;28;20516;-82
2024/02/10 07:39:02;;;;;;;0.10;0.10;;;;;;;;;;4980482;28;20176;-83
2024/02/10 07:41:28;;;;;;;0.20;0.20;;;;;;;;;;4996534;28;20042;-83
2024/02/10 07:43:54;;;;;;;0.10;0.10;;;;;;;;;;4980572;28;20088;-83
2024/02/10 07:46:21;;;;;;;0.20;0.20;;;;;;;;;;4996735;28;20049;-83
2024/02/10 07:48:48;;;;;;;0.10;0.10;;;;;;;;;;4996419;28;20042;-82
2024/02/10 07:51:14;;;;;;;0.20;0.20;;;;;;;;;;4995790;28;20044;-83
2024/02/10 07:53:44;;;;;;;0.20;0.20;;;;;;;;;;4996345;28;20077;-83
2024/02/10 07:56:12;;;;;;;0.63;0.28;;;;;;;;;;4980807;28;20119;-84
2024/02/10 07:58:40;;;;;;;0.43;0.40;;;;;;;;;;4996438;28;20042;-83
2024/02/10 08:01:06;;;;;;;0.10;0.10;;;;;;;;;;4996601;28;20363;-83
2024/02/10 08:03:32;;;;;;;0.10;0.10;;;;;;;;;;4996186;28;20050;-83
2024/02/10 08:05:58;;;;;;;0.20;0.20;;;;;;;;;;4996142;28;20050;-83
2024/02/10 08:08:26;;;;;;;0.52;0.52;;;;;;;;;;4996074;28;20053;-83
2024/02/10 08:10:52;;;;;;;0.10;0.10;;;;;;;;;;4996167;28;20398;-83
2024/02/10 08:13:21;;;;;;;0.30;0.30;;;;;;;;;;4995967;28;20046;-83
2024/02/10 08:15:48;;;;;;;0.10;0.10;;;;;;;;;;4979754;28;20049;-82
2024/02/10 08:18:15;;;;;;;0.10;0.10;;;;;;;;;;4996185;28;20385;-82
2024/02/10 08:20:41;;;;;;;0.10;0.10;;;;;;;;;;4995872;28;20100;-83
2024/02/10 08:23:11;;;;;;;0.10;0.10;;;;;;;;;;5012315;28;20050;-81
2024/02/10 08:25:38;;;;;;;0.30;0.30;;;;;;;;;;4996220;28;20394;-83
2024/02/10 08:28:06;;;;;;;0.20;0.20;;;;;;;;;;4979858;28;20365;-82
2024/02/10 08:30:33;;;;;;;0.20;0.20;;;;;;;;;;4979698;28;20038;-82
2024/02/10 08:33:00;;;;;;;0.10;0.10;;;;;;;;;;4979513;28;20041;-82
2024/02/10 08:35:27;;;;;;;0.10;0.10;;;;;;;;;;4979427;28;20042;-81
2024/02/10 08:37:55;;;;;;;0.32;0.32;;;;;;;;;;4995411;28;20077;-81
2024/02/10 08:40:21;;;;;;;0.47;0.47;;;;;;;;;;4979109;28;20481;-83
2024/02/10 08:42:48;;;;;;;0.10;0.10;;;;;;;;;;4995399;28;20048;-83
2024/02/10 08:45:14;;;;;;;0.30;0.30;;;;;;;;;;4995672;28;20389;-83
2024/02/10 08:47:42;;;;;;;0.10;0.10;;;;;;;;;;5011018;28;20076;-81
2024/02/10 08:50:08;;;;;;;0.30;0.30;;;;;;;;;;5012810;28;20046;-82
2024/02/10 08:52:34;;;;;;;0.10;0.10;;;;;;;;;;4979001;28;20053;-82
2024/02/10 08:55:05;;;;;;;0.10;0.10;;;;;;;;;;4995295;28;20038;-82
2024/02/10 08:57:31;;;;;;;0.15;0.15;;;;;;;;;;4995253;28;20041;-82
2024/02/10 08:59:57;;;;;;;0.20;0.20;;;;;;;;;;4995212;28;20045;-82
2024/02/10 09:02:23;;;;;;;1.75;0.20;;;;;;;;;;4994561;28;20068;-83
2024/02/10 09:04:50;;;;;;;0.10;0.10;;;;;;;;;;4994373;28;20057;-81
2024/02/10 09:07:19;;;;;;;0.20;0.20;;;;;;;;;;4993932;28;20121;-81
2024/02/10 09:09:45;;;;;;;0.10;0.10;;;;;;;;;;4959858;28;20567;-81
2024/02/10 09:12:12;;;;;;;0.10;0.10;;;;;;;;;;4990019;28;20496;-80
2024/02/10 09:14:38;;;;;;;0.28;0.28;;;;;;;;;;4978716;28;20069;-81
2024/02/10 09:17:05;;;;;;;0.13;0.13;;;;;;;;;;4994613;28;20088;-81
2024/02/10 09:19:35;;;;;;;0.10;0.10;;;;;;;;;;4995026;28;20129;-81
2024/02/10 09:22:03;;;;;;;0.40;0.40;;;;;;;;;;4979101;28;20057;-80
2024/02/10 09:24:29;;;;;;;0.28;0.25;;;;;;;;;;4994260;28;20046;-80
2024/02/10 09:26:58;;;;;;;0.10;0.10;;;;;;;;;;5011251;28;20042;-81
2024/02/10 09:29:24;;;;;;;0.43;0.22;;;;;;;;;;4994647;28;20107;-81
2024/02/10 09:31:52;;;;;;;0.10;0.10;;;;;;;;;;4994596;28;20486;-82
2024/02/10 09:34:20;;;;;;;0.10;0.10;;;;;;;;;;4974380;28;20446;-81
2024/02/10 09:36:47;;;;;;;0.10;0.10;;;;;;;;;;5011183;28;20095;-82
2024/02/10 09:39:13;;;;;;;0.20;0.20;;;;;;;;;;4996528;28;20121;-82
2024/02/10 09:41:39;;;;;;;0.17;0.17;;;;;;;;;;4994512;28;20154;-81
2024/02/10 09:44:12;;;;;;;0.30;0.30;;;;;;;;;;4978700;28;20837;-81
2024/02/10 09:46:38;;;;;;;0.10;0.10;;;;;;;;;;4994562;28;20556;-81
2024/02/10 09:49:07;;;;;;;0.10;0.10;;;;;;;;;;4994291;28;20119;-80
2024/02/10 09:51:37;;;;;;;0.20;0.20;;;;;;;;;;5012107;28;20034;-81
2024/02/10 09:54:04;;;;;;;0.10;0.10;;;;;;;;;;4994151;28;20478;-82
2024/02/10 09:56:30;;;;;;;0.10;0.10;;;;;;;;;;5010767;28;20048;-80
2024/02/10 09:58:56;;;;;;;0.30;0.30;;;;;;;;;;4994677;28;20038;-81
2024/02/10 10:01:22;;;;;;;0.10;0.10;;;;;;;;;;4994061;28;20045;-80
2024/02/10 10:03:48;;;;;;;0.52;0.32;;;;;;;;;;4990727;28;20109;-81
2024/02/10 10:06:14;;;;;;;0.10;0.10;;;;;;;;;;4975151;28;20052;-82
2024/02/10 10:08:41;;;;;;;1.08;0.35;;;;;;;;;;4974891;28;20074;-81
2024/02/10 10:11:10;;;;;;;0.10;0.10;;;;;;;;;;4991102;28;20112;-81
2024/02/10 10:13:37;;;;;;;0.22;0.22;;;;;;;;;;4990659;28;20084;-82
2024/02/10 10:16:07;;;;;;;0.10;0.10;;;;;;;;;;4977615;28;20042;-82
2024/02/10 10:18:35;;;;;;;0.10;0.10;;;;;;;;;;4962146;28;20421;-82
2024/02/10 10:21:06;;;;;;;0.30;0.30;;;;;;;;;;4977882;28;20039;-82
2024/02/10 10:23:33;;;;;;;0.10;0.10;;;;;;;;;;4978684;28;20128;-81
2024/02/10 10:25:59;;;;;;;0.10;0.10;;;;;;;;;;4978755;28;20446;-82
2024/02/10 10:28:25;;;;;;;0.10;0.10;;;;;;;;;;4994298;28;20055;-82
2024/02/10 10:30:52;;;;;;;0.10;0.10;;;;;;;;;;4978604;28;20097;-84
2024/02/10 10:33:20;;;;;;;0.10;0.10;;;;;;;;;;4978030;28;20479;-85
2024/02/10 10:35:46;;;;;;;0.10;0.10;;;;;;;;;;4978346;28;20040;-85
2024/02/10 10:38:12;;;;;;;0.10;0.10;;;;;;;;;;4977000;28;20041;-83
2024/02/10 10:40:38;;;;;;;0.10;0.10;;;;;;;;;;4978184;28;20210;-84
2024/02/10 10:43:10;;;;;;;0.20;0.20;;;;;;;;;;4978027;28;20049;-84
2024/02/10 10:45:39;;;;;;;0.10;0.10;;;;;;;;;;4978723;28;20509;-83
2024/02/10 10:48:05;;;;;;;1.10;0.40;;;;;;;;;;4992510;28;20050;-83
2024/02/10 10:50:32;;;;;;;0.10;0.10;;;;;;;;;;4959716;28;20046;-84
2024/02/10 10:53:04;;;;;;;0.10;0.10;;;;;;;;;;4977805;28;20050;-83
2024/02/10 10:55:30;;;;;;;0.10;0.10;;;;;;;;;;4994485;28;20053;-84
2024/02/10 10:57:57;;;;;;;0.20;0.20;;;;;;;;;;4978126;28;20463;-86
2024/02/10 11:00:25;;;;;;;0.10;0.10;;;;;;;;;;4994187;28;20038;-85
2024/02/10 11:02:52;;;;;;;0.10;0.10;;;;;;;;;;4978796;28;20081;-87
2024/02/10 11:05:19;;;;;;;0.10;0.10;;;;;;;;;;4977912;28;20498;-86
2024/02/10 11:07:49;;;;;;;0.10;0.10;;;;;;;;;;4963984;28;20103;-83
2024/02/10 11:10:35;;;;;;;0.10;0.10;;;;;;;;;;4979264;28;20410;-83
2024/02/10 11:13:01;;;;;;;0.10;0.10;;;;;;;;;;4993809;28;20042;-83
2024/02/10 11:15:27;;;;;;;0.10;0.10;;;;;;;;;;4993737;28;20449;-83
2024/02/10 11:18:00;;;;;;;0.10;0.10;;;;;;;;;;4993655;28;20551;-86
2024/02/10 11:20:30;;;;;;;0.10;0.10;;;;;;;;;;4961450;28;20038;-84
2024/02/10 11:22:57;;;;;;;2.78;0.20;;;;;;;;;;4977343;28;20049;-85
2024/02/10 11:25:25;;;;;;;0.10;0.10;;;;;;;;;;4961590;28;20133;-85
2024/02/10 11:27:55;;;;;;;0.10;0.10;;;;;;;;;;4960163;28;20082;-87
2024/02/10 11:30:22;;;;;;;0.10;0.10;;;;;;;;;;4961355;28;20038;-87
2024/02/10 11:32:48;;;;;;;0.10;0.10;;;;;;;;;;4961281;28;20427;-87
2024/02/10 11:35:14;;;;;;;0.10;0.10;;;;;;;;;;4962090;28;20038;-89
2024/02/10 11:37:41;;;;;;;0.10;0.10;;;;;;;;;;4961645;28;20125;-86
2024/02/10 11:40:11;;;;;;;0.15;0.15;;;;;;;;;;4961058;28;20138;-85
2024/02/10 11:42:42;;;;;;;0.10;0.10;;;;;;;;;;4992828;28;20046;-83
2024/02/10 11:45:09;;;;;;;0.30;0.30;;;;;;;;;;4992644;28;20042;-84
2024/02/10 11:47:35;;;;;;;0.10;0.10;;;;;;;;;;4959733;28;20129;-83
2024/02/10 11:50:01;;;;;;;0.10;0.10;;;;;;;;;;4992723;28;20062;-85
2024/02/10 11:52:29;;;;;;;0.10;0.10;;;;;;;;;;4976744;28;20050;-84
2024/02/10 11:54:55;;;;;;;0.10;0.10;;;;;;;;;;4992860;28;20128;-84
2024/02/10 11:57:26;;;;;;;0.20;0.20;;;;;;;;;;4993088;28;20038;-84
2024/02/10 11:59:52;;;;;;;0.25;0.25;;;;;;;;;;5009390;28;20044;-84
2024/02/10 12:02:19;;;;;;;0.20;0.20;;;;;;;;;;4961941;28;20130;-88
2024/02/10 12:04:50;;;;;;;0.10;0.10;;;;;;;;;;4983294;28;20129;-84
2024/02/10 12:07:16;;;;;;;0.10;0.10;;;;;;;;;;4996541;28;20034;-84
2024/02/10 12:09:42;;;;;;;0.10;0.10;;;;;;;;;;5013572;28;20033;-84
2024/02/10 12:12:12;;;;;;;0.10;0.10;;;;;;;;;;4979956;28;20041;-84
2024/02/10 12:14:38;;;;;;;0.10;0.10;;;;;;;;;;4979863;28;20486;-84
2024/02/10 12:17:09;;;;;;;0.20;0.20;;;;;;;;;;4980018;28;20042;-84
2024/02/10 12:19:40;;;;;;;0.10;0.10;;;;;;;;;;4996007;28;20202;-84
2024/02/10 12:22:09;;;;;;;0.10;0.10;;;;;;;;;;4995841;28;20080;-83
2024/02/10 12:24:37;;;;;;;0.10;0.10;;;;;;;;;;4979799;28;20046;-83
2024/02/10 12:27:03;;;;;;;0.10;0.10;;;;;;;;;;4980053;28;20060;-83
2024/02/10 12:29:30;;;;;;;0.10;0.10;;;;;;;;;;4979705;28;20172;-83
2024/02/10 12:31:56;;;;;;;0.10;0.10;;;;;;;;;;4995791;28;20127;-83
2024/02/10 12:34:22;;;;;;;0.10;0.10;;;;;;;;;;4995909;28;20098;-82
2024/02/10 12:36:48;;;;;;;0.10;0.10;;;;;;;;;;4995536;28;20116;-83
2024/02/10 12:39:15;;;;;;;0.10;0.10;;;;;;;;;;4979482;28;20498;-83
2024/02/10 12:41:45;;;;;;;0.10;0.10;;;;;;;;;;4979932;28;20041;-83
2024/02/10 12:44:11;;;;;;;0.10;0.10;;;;;;;;;;4995651;28;20178;-84
2024/02/10 12:46:38;;;;;;;0.10;0.10;;;;;;;;;;4979527;28;20046;-83
2024/02/10 12:49:04;;;;;;;0.10;0.10;;;;;;;;;;4995349;28;20104;-83
2024/02/10 12:51:32;;;;;;;0.28;0.28;;;;;;;;;;4995269;28;20096;-85
2024/02/10 12:53:59;;;;;;;0.10;0.10;;;;;;;;;;4979017;28;20424;-86
2024/02/10 12:56:27;;;;;;;0.10;0.10;;;;;;;;;;4978968;28;20056;-86
2024/02/10 12:58:58;;;;;;;0.20;0.20;;;;;;;;;;4979049;28;20045;-86
2024/02/10 13:01:25;;;;;;;0.10;0.10;;;;;;;;;;4979152;28;20099;-88
2024/02/10 13:03:52;;;;;;;0.10;0.10;;;;;;;;;;4975716;28;20058;-86
2024/02/10 13:06:18;;;;;;;0.45;0.45;;;;;;;;;;4976051;28;20049;-88
2024/02/10 13:08:49;;;;;;;0.28;0.28;;;;;;;;;;4976484;28;20070;-87
2024/02/10 13:11:15;;;;;;;0.10;0.10;;;;;;;;;;4991667;28;20038;-87
2024/02/10 13:13:44;;;;;;;0.13;0.13;;;;;;;;;;4975668;28;20077;-86
2024/02/10 13:16:10;;;;;;;0.10;0.10;;;;;;;;;;4991841;28;20046;-86
2024/02/10 13:18:37;;;;;;;0.75;0.20;;;;;;;;;;4975590;28;20045;-84
2024/02/10 13:21:03;;;;;;;0.10;0.10;;;;;;;;;;4975093;28;20536;-84
2024/02/10 13:23:29;;;;;;;0.10;0.10;;;;;;;;;;4975428;28;20038;-84
2024/02/10 13:25:57;;;;;;;0.10;0.10;;;;;;;;;;4991576;28;20096;-85
2024/02/10 13:28:23;;;;;;;0.10;0.10;;;;;;;;;;4975928;28;20390;-84
2024/02/10 13:30:51;;;;;;;0.25;0.25;;;;;;;;;;4975371;28;20482;-86
2024/02/10 13:33:17;;;;;;;0.10;0.10;;;;;;;;;;4975636;28;20054;-85
2024/02/10 13:35:44;;;;;;;0.10;0.10;;;;;;;;;;4975442;28;20039;-84
2024/02/10 14:03:34;;;;;;;0.20;0.20;;;;;;;;;;4981359;28;20061;-85
2024/02/10 14:10:46;;;;;;;0.10;0.10;;;;;;;;;;4978581;28;20046;-84
2024/02/10 14:13:20;;;;;;;0.10;0.10;;;;;;;;;;4979406;28;20054;-84
2024/02/10 14:15:54;;;;;;;0.10;0.10;;;;;;;;;;4979556;28;20169;-85
2024/02/10 14:18:28;;;;;;;0.10;0.10;;;;;;;;;;4979870;28;20541;-85
2024/02/10 14:21:03;;;;;;;0.10;0.10;;;;;;;;;;4979427;28;20390;-85
2024/02/10 14:23:29;;;;;;;0.20;0.20;;;;;;;;;;4978257;28;20122;-85
2024/02/10 14:26:01;;;;;;;0.10;0.10;;;;;;;;;;4962472;28;20437;-85
2024/02/10 14:28:49;;;;;;;0.13;0.13;;;;;;;;;;4994531;28;20042;-85
2024/02/10 14:31:17;;;;;;;0.10;0.10;;;;;;;;;;4981045;28;20150;-83
2024/02/10 14:33:46;;;;;;;0.30;0.30;;;;;;;;;;4961972;28;20043;-84
2024/02/10 14:36:38;;;;;;;0.20;0.20;;;;;;;;;;4978782;28;20077;-83
2024/02/10 14:39:14;;;;;;;0.22;0.22;;;;;;;;;;4981926;28;20038;-84
2024/02/10 14:41:43;;;;;;;0.10;0.10;;;;;;;;;;4963212;28;20034;-84
2024/02/10 14:44:10;;;;;;;0.10;0.10;;;;;;;;;;4962556;28;20300;-84
2024/02/10 14:46:42;;;;;;;0.10;0.10;;;;;;;;;;4962269;28;20129;-84
2024/02/10 14:49:15;;;;;;;0.10;0.10;;;;;;;;;;4962432;28;20046;-86
2024/02/10 14:51:41;;;;;;;0.10;0.10;;;;;;;;;;4978483;28;20122;-85
2024/02/10 14:54:10;;;;;;;0.10;0.10;;;;;;;;;;4961678;28;20521;-85
2024/02/10 14:56:38;;;;;;;0.20;0.20;;;;;;;;;;4978298;28;20053;-86
2024/02/10 14:59:04;;;;;;;0.10;0.10;;;;;;;;;;4962094;28;20041;-85
2024/02/10 15:01:30;;;;;;;0.13;0.13;;;;;;;;;;4992537;28;20038;-86
2024/02/10 15:03:56;;;;;;;0.10;0.10;;;;;;;;;;4993743;28;20101;-86
2024/02/10 15:06:24;;;;;;;0.10;0.10;;;;;;;;;;4961653;28;20042;-87
2024/02/10 15:08:50;;;;;;;0.10;0.10;;;;;;;;;;4961636;28;20050;-85
2024/02/10 15:11:16;;;;;;;0.10;0.10;;;;;;;;;;4959781;28;20280;-84
2024/02/10 15:13:43;;;;;;;0.22;0.20;;;;;;;;;;4993422;28;20043;-84
2024/02/10 15:16:09;;;;;;;0.20;0.20;;;;;;;;;;4986411;28;20038;-84